KTOP

Philip Billard Municipal Airport

Topeka, Kansas, USA
METAR KTOP 220653Z AUTO 36004KT 10SM CLR 11/09 A3027 RMK AO2 SLP249 T01110094
Observed Flight Rules
Sep-22 @ 06:53 UTC (29 minutes ago) Visual Flight Rules
Wind Visibility Clouds
360° at 4 knots 10 miles
Temperatures Readings
Current 11°C / 52°F
Dewpoint 9°C / 48°F
Humidity 88%
Altimeter 30.27" Hg
Pressure 1024.9 hPa
Elevation 268
METAR KTOP 220653Z AUTO 36004KT 10SM CLR 11/09 A3027 RMK AO2 SLP249 T01110094
Observed Flight Rules
Sep-22 @ 06:53 UTC
(29 minutes ago)
VFR
Wind Visibility
360° at 4 knots 10 miles
Clouds
Temperature Dewpoint
11°C / 52°F 9°C / 48°F
Humidity Altimeter Pressure
88% 30.27" Hg 1024.9 hPa